createdAt,value
2023-04-23T00:00:39.841Z,16.09
2023-04-23T00:01:39.846Z,16.07
2023-04-23T00:02:39.926Z,16.03
2023-04-23T00:03:39.958Z,15.93
2023-04-23T00:04:40.112Z,15.89
2023-04-23T00:05:39.778Z,15.86
2023-04-23T00:06:39.861Z,15.86
2023-04-23T00:07:39.751Z,15.86
2023-04-23T00:08:39.760Z,15.86
2023-04-23T00:09:39.746Z,15.85
2023-04-23T00:10:39.728Z,15.86
2023-04-23T00:11:39.703Z,15.85
2023-04-23T00:12:39.706Z,15.85
2023-04-23T00:13:39.722Z,15.84
2023-04-23T00:14:39.942Z,15.85
2023-04-23T00:15:39.665Z,15.84
2023-04-23T00:16:39.695Z,15.85
2023-04-23T00:17:39.659Z,15.84
2023-04-23T00:18:39.652Z,15.82
2023-04-23T00:19:39.633Z,15.82
2023-04-23T00:20:39.615Z,15.81
2023-04-23T00:21:39.606Z,15.81
2023-04-23T00:22:39.585Z,15.81
2023-04-23T00:23:39.589Z,15.79
2023-04-23T00:24:39.860Z,15.79
2023-04-23T00:25:39.573Z,15.81
2023-04-23T00:26:39.537Z,15.78
2023-04-23T00:27:39.544Z,15.79
2023-04-23T00:28:39.543Z,15.79
2023-04-23T00:29:39.522Z,15.78
2023-04-23T00:30:39.494Z,15.78
2023-04-23T00:31:39.528Z,15.76
2023-04-23T00:32:39.490Z,15.76
2023-04-23T00:33:39.455Z,15.76
2023-04-23T00:34:39.784Z,15.75
2023-04-23T00:35:39.438Z,15.75
2023-04-23T00:36:39.422Z,15.74
2023-04-23T00:37:39.449Z,15.74
2023-04-23T00:38:39.404Z,15.74
2023-04-23T00:39:39.406Z,15.72
2023-04-23T00:40:39.386Z,15.74
2023-04-23T00:41:39.375Z,15.74
2023-04-23T00:42:39.398Z,15.72
2023-04-23T00:43:39.362Z,15.70
2023-04-23T00:44:39.462Z,15.70
2023-04-23T00:45:39.342Z,15.68
2023-04-23T00:46:39.311Z,15.68
2023-04-23T00:47:39.334Z,15.64
2023-04-23T00:48:39.286Z,15.64
2023-04-23T00:49:39.332Z,15.63
2023-04-23T00:50:39.293Z,15.60
2023-04-23T00:51:39.270Z,15.59
2023-04-23T00:52:39.246Z,15.59
2023-04-23T00:53:39.234Z,15.57
2023-04-23T00:54:39.415Z,15.54
2023-04-23T00:55:39.224Z,15.51
2023-04-23T00:56:39.219Z,15.48
2023-04-23T00:57:39.194Z,15.48
2023-04-23T00:58:39.190Z,15.48
2023-04-23T00:59:39.203Z,15.46
2023-04-23T01:00:39.169Z,15.43
2023-04-23T01:01:39.224Z,15.43
2023-04-23T01:02:39.268Z,15.41
2023-04-23T01:03:39.273Z,15.41
2023-04-23T01:04:39.339Z,15.39
2023-04-23T01:05:39.125Z,15.38
2023-04-23T01:06:39.114Z,15.36
2023-04-23T01:07:39.092Z,15.35
2023-04-23T01:08:39.070Z,15.33
2023-04-23T01:09:39.080Z,15.35
2023-04-23T01:10:39.052Z,15.31
2023-04-23T01:11:39.068Z,15.31
2023-04-23T01:12:39.088Z,15.30
2023-04-23T01:13:39.029Z,15.28
2023-04-23T01:14:39.223Z,15.28
2023-04-23T01:15:38.999Z,15.26
2023-04-23T01:16:39.046Z,15.26
2023-04-23T01:17:39.024Z,15.24
2023-04-23T01:18:38.958Z,15.23
2023-04-23T01:19:39.001Z,15.23
2023-04-23T01:20:38.950Z,15.21
2023-04-23T01:21:38.940Z,15.21
2023-04-23T01:22:38.918Z,15.21
2023-04-23T01:23:38.910Z,15.20
2023-04-23T01:24:39.324Z,15.21
2023-04-23T01:25:38.899Z,15.20
2023-04-23T01:26:38.873Z,15.19
2023-04-23T01:27:38.878Z,15.20
2023-04-23T01:28:38.870Z,15.20
2023-04-23T01:29:38.887Z,15.20
2023-04-23T01:30:38.880Z,15.21
2023-04-23T01:31:38.834Z,15.21
2023-04-23T01:32:38.821Z,15.21
2023-04-23T01:33:38.805Z,15.21
2023-04-23T01:34:39.018Z,15.21
2023-04-23T01:35:38.810Z,15.21
2023-04-23T01:36:38.787Z,15.21
2023-04-23T01:37:38.770Z,15.24
2023-04-23T01:38:38.749Z,15.26
2023-04-23T01:39:38.767Z,15.26
2023-04-23T01:40:38.720Z,15.26
2023-04-23T01:41:38.758Z,15.27
2023-04-23T01:42:38.695Z,15.27
2023-04-23T01:43:38.693Z,15.26
2023-04-23T01:44:38.789Z,15.28
2023-04-23T01:45:38.698Z,15.27
2023-04-23T01:46:38.768Z,15.24
2023-04-23T01:47:38.697Z,15.26
2023-04-23T01:48:38.664Z,15.24
2023-04-23T01:49:38.656Z,15.27
2023-04-23T01:50:38.612Z,15.26
2023-04-23T01:51:38.617Z,15.19
2023-04-23T01:52:38.598Z,15.11
2023-04-23T01:53:38.611Z,14.93
2023-04-23T01:54:38.989Z,14.84
2023-04-23T01:55:38.596Z,14.80
2023-04-23T01:56:38.591Z,14.78
2023-04-23T01:57:38.609Z,14.75
2023-04-23T01:58:38.586Z,14.75
2023-04-23T01:59:38.568Z,14.72
2023-04-23T02:00:38.510Z,14.65
2023-04-23T02:01:38.549Z,14.62
2023-04-23T02:02:38.616Z,14.64
2023-04-23T02:03:38.564Z,14.65
2023-04-23T02:04:38.748Z,14.65
2023-04-23T02:05:38.469Z,14.64
2023-04-23T02:06:38.463Z,14.60
2023-04-23T02:07:38.424Z,14.56
2023-04-23T02:08:38.406Z,14.52
2023-04-23T02:09:38.423Z,14.47
2023-04-23T02:10:38.393Z,14.43
2023-04-23T02:11:38.381Z,14.38
2023-04-23T02:12:38.379Z,14.34
2023-04-23T02:13:38.361Z,14.32
2023-04-23T02:14:38.450Z,14.35
2023-04-23T02:15:38.342Z,14.34
2023-04-23T02:16:38.333Z,14.31
2023-04-23T02:17:38.340Z,14.24
2023-04-23T02:18:38.310Z,14.13
2023-04-23T02:19:38.355Z,14.06
2023-04-23T02:20:38.317Z,13.88
2023-04-23T02:21:38.278Z,13.84
2023-04-23T02:22:38.279Z,13.84
2023-04-23T02:23:38.253Z,13.84
2023-04-23T02:24:38.349Z,13.84
2023-04-23T02:25:38.238Z,13.83
2023-04-23T02:26:38.212Z,13.80
2023-04-23T02:27:38.200Z,13.79
2023-04-23T02:28:38.205Z,13.81
2023-04-23T02:29:38.228Z,13.74
2023-04-23T02:30:38.171Z,13.69
2023-04-23T02:31:38.203Z,13.65
2023-04-23T02:32:38.160Z,13.63
2023-04-23T02:33:38.147Z,13.62
2023-04-23T02:34:38.272Z,13.65
2023-04-23T02:35:38.113Z,13.65
2023-04-23T02:36:38.108Z,13.65
2023-04-23T02:37:38.110Z,13.65
2023-04-23T02:38:38.096Z,13.65
2023-04-23T02:39:38.131Z,13.61
2023-04-23T02:40:38.061Z,13.58
2023-04-23T02:41:38.058Z,13.58
2023-04-23T02:42:38.042Z,13.59
2023-04-23T02:43:38.043Z,13.62
2023-04-23T02:44:38.112Z,13.63
2023-04-23T02:45:38.019Z,13.67
2023-04-23T02:46:38.040Z,13.65
2023-04-23T02:47:38.057Z,13.65
2023-04-23T02:48:38.043Z,13.65
2023-04-23T02:49:37.978Z,13.63
2023-04-23T02:50:37.949Z,13.59
2023-04-23T02:51:37.930Z,13.58
2023-04-23T02:52:37.928Z,13.55
2023-04-23T02:53:37.913Z,13.56
2023-04-23T02:54:37.939Z,13.54
2023-04-23T02:55:37.928Z,13.56
2023-04-23T02:56:37.883Z,13.58
2023-04-23T02:57:37.906Z,13.55
2023-04-23T02:58:37.861Z,13.55
2023-04-23T02:59:37.867Z,13.54
2023-04-23T03:00:37.871Z,13.49
2023-04-23T03:01:37.865Z,13.49
2023-04-23T03:02:37.905Z,13.51
2023-04-23T03:03:37.911Z,13.49
2023-04-23T03:04:37.818Z,13.46
2023-04-23T03:05:37.817Z,13.46
2023-04-23T03:06:37.762Z,13.46
2023-04-23T03:07:37.775Z,13.46
2023-04-23T03:08:37.736Z,13.38
2023-04-23T03:09:37.736Z,13.36
2023-04-23T03:10:37.735Z,13.33
2023-04-23T03:11:37.710Z,13.33
2023-04-23T03:12:37.706Z,13.33
2023-04-23T03:13:37.702Z,13.29
2023-04-23T03:14:37.673Z,13.24
2023-04-23T03:15:37.696Z,13.18
2023-04-23T03:16:37.680Z,13.20
2023-04-23T03:17:37.676Z,13.18
2023-04-23T03:18:37.648Z,13.20
2023-04-23T03:19:37.624Z,13.21
2023-04-23T03:20:37.625Z,13.24
2023-04-23T03:21:37.614Z,13.27
2023-04-23T03:22:37.588Z,13.27
2023-04-23T03:23:37.579Z,13.29
2023-04-23T03:24:37.583Z,13.27
2023-04-23T03:25:37.575Z,13.22
2023-04-23T03:26:37.540Z,13.20
2023-04-23T03:27:39.687Z,13.14
2023-04-23T03:28:37.527Z,13.12
2023-04-23T03:29:37.506Z,13.11
2023-04-23T03:30:37.553Z,13.11
2023-04-23T03:31:37.505Z,13.07
2023-04-23T03:32:37.488Z,13.06
2023-04-23T03:33:37.464Z,13.11
2023-04-23T03:34:37.459Z,13.12
2023-04-23T03:35:37.473Z,13.15
2023-04-23T03:36:37.432Z,13.14
2023-04-23T03:37:37.418Z,13.09
2023-04-23T03:38:37.407Z,13.06
2023-04-23T03:39:37.398Z,13.06
2023-04-23T03:40:37.411Z,13.04
2023-04-23T03:41:37.393Z,12.99
2023-04-23T03:42:37.377Z,12.93
2023-04-23T03:43:37.350Z,12.88
2023-04-23T03:44:37.333Z,12.85
2023-04-23T03:45:37.372Z,12.87
2023-04-23T03:46:37.368Z,12.88
2023-04-23T03:47:37.369Z,12.92
2023-04-23T03:48:37.312Z,12.88
2023-04-23T03:49:37.282Z,12.85
2023-04-23T03:50:37.294Z,12.87
2023-04-23T03:51:37.296Z,12.87
2023-04-23T03:52:37.274Z,12.88
2023-04-23T03:53:37.245Z,12.88
2023-04-23T03:54:37.225Z,12.78
2023-04-23T03:55:37.263Z,12.66
2023-04-23T03:56:37.213Z,12.63
2023-04-23T03:57:37.205Z,12.62
2023-04-23T03:58:37.201Z,12.63
2023-04-23T03:59:37.184Z,12.63
2023-04-23T04:00:37.197Z,12.60
2023-04-23T04:01:37.195Z,12.62
2023-04-23T04:02:37.283Z,12.59
2023-04-23T04:03:37.296Z,12.60
2023-04-23T04:04:37.267Z,12.62
2023-04-23T04:05:37.162Z,12.63
2023-04-23T04:06:37.109Z,12.63
2023-04-23T04:07:37.123Z,12.67
2023-04-23T04:08:37.082Z,12.70
2023-04-23T04:09:37.082Z,12.74
2023-04-23T04:10:37.073Z,12.75
2023-04-23T04:11:37.049Z,12.78
2023-04-23T04:12:37.033Z,12.78
2023-04-23T04:13:37.029Z,12.78
2023-04-23T04:14:37.024Z,12.78
2023-04-23T04:15:37.023Z,12.78
2023-04-23T04:16:37.030Z,12.78
2023-04-23T04:17:36.987Z,12.79
2023-04-23T04:18:36.964Z,12.82
2023-04-23T04:19:36.965Z,12.69
2023-04-23T04:20:36.978Z,12.63
2023-04-23T04:21:36.955Z,12.63
2023-04-23T04:22:36.939Z,12.63
2023-04-23T04:23:36.913Z,12.62
2023-04-23T04:24:36.902Z,12.62
2023-04-23T04:25:36.895Z,12.59
2023-04-23T04:26:36.882Z,12.56
2023-04-23T04:27:36.892Z,12.54
2023-04-23T04:28:36.867Z,12.57
2023-04-23T04:29:36.861Z,12.56
2023-04-23T04:30:36.824Z,12.57
2023-04-23T04:31:36.831Z,12.54
2023-04-23T04:32:36.861Z,12.49
2023-04-23T04:33:36.796Z,12.46
2023-04-23T04:34:36.785Z,12.45
2023-04-23T04:35:36.773Z,12.46
2023-04-23T04:36:36.788Z,12.45
2023-04-23T04:37:36.762Z,12.44
2023-04-23T04:38:36.781Z,12.46
2023-04-23T04:39:36.766Z,12.48
2023-04-23T04:40:36.752Z,12.46
2023-04-23T04:41:36.706Z,12.49
2023-04-23T04:42:36.734Z,12.51
2023-04-23T04:43:36.690Z,12.51
2023-04-23T04:44:36.696Z,12.52
2023-04-23T04:45:36.711Z,12.45
2023-04-23T04:46:36.666Z,12.46
2023-04-23T04:47:36.662Z,12.48
2023-04-23T04:48:36.656Z,12.48
2023-04-23T04:49:36.648Z,12.49
2023-04-23T04:50:36.609Z,12.49
2023-04-23T04:51:36.635Z,12.49
2023-04-23T04:52:36.591Z,12.49
2023-04-23T04:53:36.580Z,12.49
2023-04-23T04:54:36.573Z,12.46
2023-04-23T04:55:36.564Z,12.45
2023-04-23T04:56:36.543Z,12.45
2023-04-23T04:57:36.635Z,12.45
2023-04-23T04:58:36.517Z,12.45
2023-04-23T04:59:36.505Z,12.48
2023-04-23T05:00:36.525Z,12.45
2023-04-23T05:01:36.506Z,12.42
2023-04-23T05:02:36.567Z,12.41
2023-04-23T05:03:36.649Z,12.42
2023-04-23T05:04:36.456Z,12.41
2023-04-23T05:05:36.452Z,12.39
2023-04-23T05:06:36.434Z,12.38
2023-04-23T05:07:36.431Z,12.38
2023-04-23T05:08:36.419Z,12.38
2023-04-23T05:09:36.390Z,12.38
2023-04-23T05:10:36.410Z,12.37
2023-04-23T05:11:36.385Z,12.38
2023-04-23T05:12:36.357Z,12.37
2023-04-23T05:13:36.360Z,12.34
2023-04-23T05:14:36.363Z,12.34
2023-04-23T05:15:36.366Z,12.38
2023-04-23T05:16:36.416Z,12.39
2023-04-23T05:17:36.315Z,12.39
2023-04-23T05:18:36.309Z,12.39
2023-04-23T05:19:36.296Z,12.34
2023-04-23T05:20:36.295Z,12.33
2023-04-23T05:21:36.301Z,12.33
2023-04-23T05:22:36.268Z,12.34
2023-04-23T05:23:36.261Z,12.37
2023-04-23T05:24:36.232Z,12.38
2023-04-23T05:25:36.276Z,12.41
2023-04-23T05:26:36.209Z,12.42
2023-04-23T05:27:36.220Z,12.44
2023-04-23T05:28:36.205Z,12.45
2023-04-23T05:29:36.183Z,12.48
2023-04-23T05:30:36.214Z,12.48
2023-04-23T05:31:36.178Z,12.49
2023-04-23T05:32:36.186Z,12.51
2023-04-23T05:33:46.427Z,12.52
2023-04-23T05:34:36.151Z,12.56
2023-04-23T05:35:42.162Z,12.59
2023-04-23T05:36:36.091Z,12.62
2023-04-23T05:37:36.077Z,12.64
2023-04-23T05:38:36.066Z,12.62
2023-04-23T05:39:36.074Z,12.54
2023-04-23T05:40:36.069Z,12.52
2023-04-23T05:41:36.052Z,12.52
2023-04-23T05:42:36.032Z,12.49
2023-04-23T05:43:36.045Z,12.45
2023-04-23T05:44:36.018Z,12.38
2023-04-23T05:45:36.325Z,12.29
2023-04-23T05:46:36.027Z,12.26
2023-04-23T05:47:36.023Z,12.24
2023-04-23T05:48:35.963Z,12.24
2023-04-23T05:49:35.958Z,12.26
2023-04-23T05:50:35.947Z,12.27
2023-04-23T05:51:35.945Z,12.29
2023-04-23T05:52:35.937Z,12.31
2023-04-23T05:53:35.911Z,12.31
2023-04-23T05:54:35.913Z,12.33
2023-04-23T05:55:35.923Z,12.31
2023-04-23T05:56:35.934Z,12.34
2023-04-23T05:57:35.883Z,12.34
2023-04-23T05:58:35.852Z,12.34
2023-04-23T05:59:35.838Z,12.31
2023-04-23T06:00:35.845Z,12.30
2023-04-23T06:01:35.822Z,12.30
2023-04-23T06:02:35.960Z,12.31
2023-04-23T06:03:36.014Z,12.34
2023-04-23T06:04:36.146Z,12.37
2023-04-23T06:05:35.797Z,12.41
2023-04-23T06:06:35.753Z,12.45
2023-04-23T06:07:35.746Z,12.41
2023-04-23T06:08:35.754Z,12.41
2023-04-23T06:09:35.740Z,12.44
2023-04-23T06:10:35.729Z,12.48
2023-04-23T06:11:35.719Z,12.48
2023-04-23T06:12:35.693Z,12.51
2023-04-23T06:13:35.676Z,12.51
2023-04-23T06:14:35.681Z,12.54
2023-04-23T06:15:35.686Z,12.57
2023-04-23T06:16:35.682Z,12.63
2023-04-23T06:17:35.676Z,12.70
2023-04-23T06:18:35.626Z,12.75
2023-04-23T06:19:35.621Z,12.82
2023-04-23T06:20:35.636Z,12.88
2023-04-23T06:21:35.594Z,12.89
2023-04-23T06:22:35.578Z,12.92
2023-04-23T06:23:35.563Z,12.89
2023-04-23T06:24:35.569Z,12.88
2023-04-23T06:25:35.547Z,12.88
2023-04-23T06:26:35.549Z,12.82
2023-04-23T06:27:35.523Z,12.81
2023-04-23T06:28:35.510Z,12.81
2023-04-23T06:29:35.548Z,12.84
2023-04-23T06:30:35.509Z,12.87
2023-04-23T06:31:35.571Z,12.79
2023-04-23T06:32:35.514Z,12.75
2023-04-23T06:33:35.477Z,12.77
2023-04-23T06:34:35.443Z,12.78
2023-04-23T06:35:35.463Z,12.74
2023-04-23T06:36:35.428Z,12.74
2023-04-23T06:37:35.420Z,12.77
2023-04-23T06:38:35.405Z,12.81
2023-04-23T06:39:35.392Z,12.84
2023-04-23T06:40:35.384Z,12.87
2023-04-23T06:41:35.383Z,12.89
2023-04-23T06:42:35.406Z,12.88
2023-04-23T06:43:35.340Z,12.92
2023-04-23T06:44:35.324Z,12.85
2023-04-23T06:45:35.366Z,12.85
2023-04-23T06:46:35.333Z,12.82
2023-04-23T06:47:35.348Z,12.70
2023-04-23T06:48:35.284Z,12.63
2023-04-23T06:49:34.273Z,12.66
2023-04-23T06:50:35.280Z,12.67
2023-04-23T06:51:35.275Z,12.69
2023-04-23T06:52:35.260Z,12.67
2023-04-23T06:53:35.245Z,12.63
2023-04-23T06:54:35.211Z,12.56
2023-04-23T06:55:35.225Z,12.52
2023-04-23T06:56:35.199Z,12.56
2023-04-23T06:57:35.190Z,12.59
2023-04-23T06:58:35.197Z,12.59
2023-04-23T06:59:35.163Z,12.63
2023-04-23T07:00:35.173Z,12.67
2023-04-23T07:01:35.159Z,12.75
2023-04-23T07:02:35.229Z,12.79
2023-04-23T07:03:35.145Z,12.84
2023-04-23T07:04:35.186Z,12.92
2023-04-23T07:05:35.114Z,12.97
2023-04-23T07:06:35.098Z,13.00
2023-04-23T07:07:35.113Z,12.97
2023-04-23T07:08:35.097Z,12.97
2023-04-23T07:09:35.077Z,13.00
2023-04-23T07:10:35.097Z,13.04
2023-04-23T07:11:35.081Z,13.06
2023-04-23T07:12:35.028Z,13.03
2023-04-23T07:13:35.044Z,12.93
2023-04-23T07:14:35.011Z,12.85
2023-04-23T07:15:35.081Z,12.85
2023-04-23T07:16:35.003Z,12.84
2023-04-23T07:17:35.022Z,12.87
2023-04-23T07:18:35.003Z,12.93
2023-04-23T07:19:34.977Z,12.96
2023-04-23T07:20:34.970Z,13.03
2023-04-23T07:21:34.952Z,13.04
2023-04-23T07:22:34.952Z,13.09
2023-04-23T07:23:35.073Z,13.12
2023-04-23T07:24:34.912Z,13.17
2023-04-23T07:25:34.900Z,13.06
2023-04-23T07:26:34.941Z,12.99
2023-04-23T07:27:34.896Z,12.82
2023-04-23T07:28:34.890Z,12.84
2023-04-23T07:29:34.854Z,12.89
2023-04-23T07:30:34.844Z,12.95
2023-04-23T07:31:34.883Z,13.02
2023-04-23T07:32:34.881Z,13.03
2023-04-23T07:33:34.809Z,13.12
2023-04-23T07:34:36.233Z,13.21
2023-04-23T07:35:34.807Z,13.32
2023-04-23T07:36:34.842Z,13.43
2023-04-23T07:37:34.784Z,13.46
2023-04-23T07:38:34.749Z,13.51
2023-04-23T07:39:34.767Z,13.56
2023-04-23T07:40:34.748Z,13.55
2023-04-23T07:41:34.756Z,13.52
2023-04-23T07:42:34.708Z,13.41
2023-04-23T07:43:34.705Z,13.40
2023-04-23T07:44:34.703Z,13.38
2023-04-23T07:45:34.678Z,13.43
2023-04-23T07:46:34.737Z,13.27
2023-04-23T07:47:34.714Z,13.15
2023-04-23T07:48:34.655Z,13.15
2023-04-23T07:49:34.760Z,13.21
2023-04-23T07:50:34.636Z,13.18
2023-04-23T07:51:34.629Z,13.24
2023-04-23T07:52:34.610Z,13.33
2023-04-23T07:53:34.622Z,13.43
2023-04-23T07:54:34.579Z,13.55
2023-04-23T07:55:34.577Z,13.63
2023-04-23T07:56:34.589Z,13.70
2023-04-23T07:57:34.554Z,13.65
2023-04-23T07:58:34.527Z,13.61
2023-04-23T07:59:34.535Z,13.62
2023-04-23T08:00:34.531Z,13.65
2023-04-23T08:01:34.523Z,13.69
2023-04-23T08:02:34.641Z,13.70
2023-04-23T08:03:34.668Z,13.71
2023-04-23T08:04:34.617Z,13.80
2023-04-23T08:05:34.467Z,13.80
2023-04-23T08:06:34.454Z,13.81
2023-04-23T08:07:34.443Z,13.88
2023-04-23T08:08:35.236Z,13.95
2023-04-23T08:09:34.446Z,14.02
2023-04-23T08:10:34.406Z,14.09
2023-04-23T08:11:34.429Z,14.06
2023-04-23T08:12:34.367Z,14.10
2023-04-23T08:13:34.364Z,14.12
2023-04-23T08:14:34.343Z,14.14
2023-04-23T08:15:34.356Z,14.17
2023-04-23T08:16:36.432Z,14.24
2023-04-23T08:17:34.326Z,14.25
2023-04-23T08:18:34.315Z,14.17
2023-04-23T08:19:34.304Z,14.17
2023-04-23T08:20:34.301Z,14.13
2023-04-23T08:21:34.292Z,14.09
2023-04-23T08:22:34.274Z,14.10
2023-04-23T08:23:34.277Z,14.02
2023-04-23T08:24:34.234Z,13.96
2023-04-23T08:25:34.216Z,13.80
2023-04-23T08:26:34.254Z,13.87
2023-04-23T08:27:34.210Z,13.92
2023-04-23T08:28:34.212Z,14.02
2023-04-23T08:29:34.175Z,14.13
2023-04-23T08:30:34.174Z,14.25
2023-04-23T08:31:34.200Z,14.29
2023-04-23T08:32:34.252Z,14.28
2023-04-23T08:33:34.144Z,14.17
2023-04-23T08:34:35.773Z,14.04
2023-04-23T08:35:34.131Z,13.88
2023-04-23T08:36:34.140Z,13.87
2023-04-23T08:37:34.114Z,13.91
2023-04-23T08:38:34.080Z,13.94
2023-04-23T08:39:34.063Z,13.96
2023-04-23T08:40:34.054Z,13.96
2023-04-23T08:41:34.070Z,13.96
2023-04-23T08:42:34.036Z,14.01
2023-04-23T08:43:34.045Z,14.07
2023-04-23T08:44:34.008Z,14.21
2023-04-23T08:45:34.005Z,14.27
2023-04-23T08:46:34.017Z,14.28
2023-04-23T08:47:34.004Z,14.27
2023-04-23T08:48:33.984Z,14.34
2023-04-23T08:49:33.950Z,14.42
2023-04-23T08:50:33.959Z,14.37
2023-04-23T08:51:33.954Z,14.37
2023-04-23T08:52:33.962Z,14.37
2023-04-23T08:53:33.936Z,14.44
2023-04-23T08:54:33.922Z,14.53
2023-04-23T08:55:33.915Z,14.56
2023-04-23T08:56:33.908Z,14.62
2023-04-23T08:57:33.869Z,14.67
2023-04-23T08:58:33.859Z,14.74
2023-04-23T08:59:33.843Z,14.83
2023-04-23T09:00:33.852Z,14.93
2023-04-23T09:01:33.845Z,15.02
2023-04-23T09:02:33.877Z,15.12
2023-04-23T09:03:33.853Z,15.24
2023-04-23T09:04:33.822Z,15.30
2023-04-23T09:05:33.780Z,15.36
2023-04-23T09:06:33.793Z,15.31
2023-04-23T09:07:33.757Z,15.09
2023-04-23T09:08:33.772Z,14.88
2023-04-23T09:09:33.745Z,14.68
2023-04-23T09:10:33.734Z,14.65
2023-04-23T09:11:33.727Z,14.71
2023-04-23T09:12:33.715Z,14.78
2023-04-23T09:13:33.720Z,14.88
2023-04-23T09:14:33.685Z,15.01
2023-04-23T09:15:33.670Z,15.21
2023-04-23T09:16:33.722Z,15.31
2023-04-23T09:17:33.719Z,15.38
2023-04-23T09:18:33.663Z,15.31
2023-04-23T09:19:33.640Z,15.31
2023-04-23T09:20:33.633Z,15.41
2023-04-23T09:21:33.613Z,15.51
2023-04-23T09:22:33.600Z,15.61
2023-04-23T09:23:33.583Z,15.70
2023-04-23T09:24:33.571Z,15.84
2023-04-23T09:25:33.566Z,15.97
2023-04-23T09:26:33.564Z,16.15
2023-04-23T09:27:33.544Z,16.18
2023-04-23T09:28:33.523Z,16.25
2023-04-23T09:29:33.508Z,16.22
2023-04-23T09:30:33.543Z,16.26
2023-04-23T09:31:33.524Z,16.23
2023-04-23T09:32:33.561Z,16.23
2023-04-23T09:33:33.476Z,16.25
2023-04-23T09:34:33.464Z,16.23
2023-04-23T09:35:33.448Z,16.11
2023-04-23T09:36:33.474Z,16.12
2023-04-23T09:37:33.444Z,16.09
2023-04-23T09:38:33.418Z,16.12
2023-04-23T09:39:33.427Z,16.16
2023-04-23T09:40:33.395Z,16.30
2023-04-23T09:41:33.398Z,16.34
2023-04-23T09:42:33.370Z,16.33
2023-04-23T09:43:33.364Z,16.40
2023-04-23T09:44:33.348Z,16.42
2023-04-23T09:45:33.344Z,16.25
2023-04-23T09:46:33.351Z,16.26
2023-04-23T09:47:33.335Z,16.33
2023-04-23T09:48:33.306Z,16.37
2023-04-23T09:49:33.313Z,16.40
2023-04-23T09:50:33.296Z,16.45
2023-04-23T09:51:33.283Z,16.56
2023-04-23T09:52:33.275Z,16.55
2023-04-23T09:53:33.250Z,16.44
2023-04-23T09:54:33.250Z,16.41
2023-04-23T09:55:33.245Z,16.48
2023-04-23T09:56:33.239Z,16.49
2023-04-23T09:57:33.207Z,16.55
2023-04-23T09:58:33.189Z,16.65
2023-04-23T09:59:46.787Z,16.71
2023-04-23T10:00:33.172Z,16.81
2023-04-23T10:01:33.228Z,16.78
2023-04-23T10:02:33.221Z,16.86
2023-04-23T10:03:33.254Z,16.93
2023-04-23T10:04:33.362Z,16.89
2023-04-23T10:05:49.803Z,16.92
2023-04-23T10:06:44.330Z,16.92
2023-04-23T10:07:33.107Z,16.90
2023-04-23T10:08:33.079Z,16.81
2023-04-23T10:09:33.061Z,16.81
2023-04-23T10:11:33.060Z,17.03
2023-04-23T10:12:52.085Z,17.15
2023-04-23T10:13:33.027Z,17.23
2023-04-23T10:14:33.010Z,17.36
2023-04-23T10:15:33.017Z,17.41
2023-04-23T10:16:46.061Z,17.47
2023-04-23T10:17:33.002Z,17.54
2023-04-23T10:18:32.964Z,17.53
2023-04-23T10:19:32.951Z,17.66
2023-04-23T10:20:32.945Z,17.76
2023-04-23T10:21:46.243Z,17.88
2023-04-23T10:22:32.933Z,17.92
2023-04-23T10:23:32.911Z,17.87
2023-04-23T10:24:32.896Z,17.88
2023-04-23T10:25:32.896Z,17.92
2023-04-23T10:26:32.901Z,18.02
2023-04-23T10:27:40.299Z,18.13
2023-04-23T10:28:32.870Z,18.22
2023-04-23T10:29:32.839Z,18.34
2023-04-23T10:30:32.818Z,18.47
2023-04-23T10:31:32.933Z,18.61
2023-04-23T10:32:32.834Z,18.62
2023-04-23T10:33:37.629Z,18.61
2023-04-23T10:34:32.817Z,18.65
2023-04-23T10:35:32.814Z,18.72
2023-04-23T10:36:32.778Z,18.68
2023-04-23T10:37:32.754Z,18.58
2023-04-23T10:38:32.747Z,18.57
2023-04-23T10:39:32.733Z,18.50
2023-04-23T10:40:32.724Z,18.55
2023-04-23T10:41:32.726Z,18.62
2023-04-23T10:42:32.709Z,18.74
2023-04-23T10:43:32.692Z,18.87
2023-04-23T10:44:50.186Z,18.98
2023-04-23T10:45:32.667Z,19.05
2023-04-23T10:46:32.713Z,19.10
2023-04-23T10:47:32.691Z,19.02
2023-04-23T10:48:32.630Z,18.87
2023-04-23T10:49:32.619Z,18.80
2023-04-23T10:50:32.604Z,18.79
2023-04-23T10:52:14.891Z,18.79
2023-04-23T10:52:32.592Z,18.84
2023-04-23T10:53:32.572Z,18.86
2023-04-23T10:54:32.615Z,18.98
2023-04-23T10:55:32.560Z,19.11
2023-04-23T10:56:32.558Z,19.21
2023-04-23T10:57:32.530Z,19.29
2023-04-23T10:58:32.552Z,19.33
2023-04-23T10:59:32.525Z,19.28
2023-04-23T11:00:32.527Z,19.25
2023-04-23T11:01:32.545Z,19.35
2023-04-23T11:02:32.552Z,19.38
2023-04-23T11:03:32.776Z,19.32
2023-04-23T11:04:32.687Z,19.23
2023-04-23T11:05:32.437Z,19.24
2023-04-23T11:06:32.440Z,19.29
2023-04-23T11:07:32.423Z,19.28
2023-04-23T11:08:32.425Z,19.29
2023-04-23T11:09:32.407Z,19.35
2023-04-23T11:10:32.387Z,19.43
2023-04-23T11:11:32.436Z,19.31
2023-04-23T11:12:32.378Z,19.36
2023-04-23T11:13:32.377Z,19.43
2023-04-23T11:14:32.364Z,19.47
2023-04-23T11:15:32.333Z,19.43
2023-04-23T11:16:32.415Z,19.42
2023-04-23T11:17:32.337Z,19.50
2023-04-23T11:18:32.289Z,19.55
2023-04-23T11:19:32.292Z,19.65
2023-04-23T11:20:32.276Z,19.78
2023-04-23T11:21:32.280Z,19.93
2023-04-23T11:22:32.276Z,19.95
2023-04-23T11:23:32.269Z,20.03
2023-04-23T11:24:32.252Z,20.12
2023-04-23T11:25:32.219Z,20.21
2023-04-23T11:26:32.226Z,20.10
2023-04-23T11:27:32.223Z,19.95
2023-04-23T11:28:32.190Z,19.87
2023-04-23T11:29:32.174Z,19.90
2023-04-23T11:30:32.168Z,20.00
2023-04-23T11:31:32.324Z,20.08
2023-04-23T11:32:32.293Z,20.05
2023-04-23T11:33:32.138Z,19.75
2023-04-23T11:34:32.134Z,19.66
2023-04-23T11:35:38.682Z,19.73
2023-04-23T11:36:32.109Z,19.84
2023-04-23T11:37:32.078Z,19.39
2023-04-23T11:38:32.075Z,19.32
2023-04-23T11:39:32.074Z,19.31
2023-04-23T11:40:32.057Z,19.39
2023-04-23T11:41:32.059Z,19.40
2023-04-23T11:42:32.036Z,19.47
2023-04-23T11:43:32.026Z,19.39
2023-04-23T11:44:32.103Z,19.43
2023-04-23T11:45:32.002Z,19.57
2023-04-23T11:46:32.026Z,19.78
2023-04-23T11:47:32.026Z,19.90
2023-04-23T11:48:31.985Z,19.91
2023-04-23T11:49:32.000Z,19.95
2023-04-23T11:50:31.976Z,19.95
2023-04-23T11:51:31.936Z,19.87
2023-04-23T11:52:31.918Z,19.86
2023-04-23T11:53:31.944Z,19.79
2023-04-23T11:54:31.899Z,19.80
2023-04-23T11:55:31.887Z,19.84
2023-04-23T11:56:31.891Z,19.95
2023-04-23T11:57:31.858Z,19.90
2023-04-23T11:58:31.858Z,19.83
2023-04-23T11:59:31.865Z,19.87
2023-04-23T12:00:31.835Z,19.83
2023-04-23T12:01:31.885Z,19.91
2023-04-23T12:02:31.879Z,20.10
2023-04-23T12:03:31.973Z,20.25
2023-04-23T12:04:31.900Z,20.34
2023-04-23T12:05:31.825Z,20.50
2023-04-23T12:06:31.766Z,20.64
2023-04-23T12:07:31.769Z,20.76
2023-04-23T12:08:31.745Z,20.86
2023-04-23T12:09:31.736Z,20.91
2023-04-23T12:10:31.740Z,20.99
2023-04-23T12:11:31.734Z,21.01
2023-04-23T12:12:31.717Z,20.81
2023-04-23T12:13:31.688Z,20.69
2023-04-23T12:14:31.677Z,20.58
2023-04-23T12:15:31.674Z,20.41
2023-04-23T12:16:31.864Z,20.24
2023-04-23T12:17:31.695Z,20.09
2023-04-23T12:18:31.649Z,20.16
2023-04-23T12:19:31.630Z,20.25
2023-04-23T12:20:31.602Z,20.43
2023-04-23T12:21:31.621Z,20.65
2023-04-23T12:22:31.610Z,20.89
2023-04-23T12:23:31.592Z,21.02
2023-04-23T12:24:31.584Z,21.11
2023-04-23T12:25:31.550Z,20.95
2023-04-23T12:26:31.587Z,21.01
2023-04-23T12:27:31.531Z,21.14
2023-04-23T12:28:31.525Z,21.27
2023-04-23T12:29:31.534Z,21.34
2023-04-23T12:30:31.497Z,21.06
2023-04-23T12:31:31.517Z,20.86
2023-04-23T12:32:31.541Z,20.87
2023-04-23T12:33:31.493Z,21.02
2023-04-23T12:34:31.492Z,20.96
2023-04-23T12:35:31.473Z,20.91
2023-04-23T12:36:31.451Z,20.98
2023-04-23T12:37:31.440Z,21.09
2023-04-23T12:38:31.457Z,21.24
2023-04-23T12:39:31.444Z,21.44
2023-04-23T12:40:31.383Z,21.56
2023-04-23T12:41:32.998Z,21.74
2023-04-23T12:42:31.370Z,21.95
2023-04-23T12:43:31.355Z,22.02
2023-04-23T12:44:31.376Z,22.02
2023-04-23T12:45:31.325Z,21.98
2023-04-23T12:46:31.365Z,21.76
2023-04-23T12:47:31.340Z,21.66
2023-04-23T12:48:31.311Z,21.74
2023-04-23T12:49:31.315Z,21.82
2023-04-23T12:50:31.303Z,21.88
2023-04-23T12:51:31.279Z,21.66
2023-04-23T12:52:31.288Z,21.29
2023-04-23T12:53:31.264Z,21.11